createdAt,value
2022-08-05T00:00:00.645Z,47.5
2022-08-05T00:05:05.980Z,47.3
2022-08-05T00:15:14.150Z,47.1
2022-08-05T00:25:01.303Z,47.0
2022-08-05T00:35:07.771Z,47.2
2022-08-05T00:40:00.593Z,47.2
2022-08-05T00:45:00.205Z,46.7
2022-08-05T00:55:00.732Z,46.5
2022-08-05T01:05:00.127Z,46.5
2022-08-05T01:15:05.056Z,46.4
2022-08-05T01:25:00.164Z,46.9
2022-08-05T01:35:00.148Z,46.8
2022-08-05T01:40:00.410Z,46.9
2022-08-05T01:45:03.158Z,47.1
2022-08-05T01:55:00.639Z,47.4
2022-08-05T02:05:00.147Z,47.8
2022-08-05T02:15:03.295Z,48.1
2022-08-05T02:20:00.553Z,48.2
2022-08-05T02:25:00.452Z,48.3
2022-08-05T02:30:01.098Z,48.4
2022-08-05T02:35:14.023Z,48.4
2022-08-05T02:45:01.378Z,48.5
2022-08-05T02:50:01.016Z,48.6
2022-08-05T02:55:06.534Z,48.7
2022-08-05T03:05:00.120Z,48.8
2022-08-05T03:10:02.280Z,48.9
2022-08-05T03:15:00.205Z,49.0
2022-08-05T03:25:11.836Z,49.2
2022-08-05T03:30:09.144Z,49.3
2022-08-05T03:35:00.868Z,49.6
2022-08-05T03:45:21.262Z,49.8
2022-08-05T03:50:01.193Z,49.9
2022-08-05T03:55:54.484Z,49.9
2022-08-05T04:00:01.801Z,50.0
2022-08-05T04:05:00.246Z,50.0
2022-08-05T04:15:00.131Z,50.0
2022-08-05T04:25:00.775Z,50.1
2022-08-05T04:35:00.138Z,50.3
2022-08-05T04:45:01.087Z,50.4
2022-08-05T04:50:11.411Z,50.4
2022-08-05T04:55:14.865Z,50.5
2022-08-05T05:05:03.288Z,50.8
2022-08-05T05:15:04.028Z,50.9
2022-08-05T05:25:16.291Z,51.1
2022-08-05T05:30:05.238Z,51.2
2022-08-05T05:35:03.230Z,51.2
2022-08-05T05:45:03.151Z,51.3
2022-08-05T05:55:13.190Z,51.5
2022-08-05T06:05:01.480Z,51.6
2022-08-05T06:10:08.375Z,51.8
2022-08-05T06:15:00.493Z,51.7
2022-08-05T06:25:00.319Z,51.9
2022-08-05T06:30:18.042Z,52.1
2022-08-05T06:35:15.361Z,52.8
2022-08-05T06:45:06.522Z,53.1
2022-08-05T06:55:02.630Z,53.2
2022-08-05T07:05:00.121Z,53.1
2022-08-05T07:10:03.749Z,53.1
2022-08-05T07:15:00.727Z,53.1
2022-08-05T07:25:24.290Z,53.2
2022-08-05T07:30:23.054Z,53.1
2022-08-05T07:35:56.476Z,53.2
2022-08-05T07:45:00.516Z,53.1
2022-08-05T07:50:06.768Z,53.0
2022-08-05T07:55:03.687Z,53.0
2022-08-05T08:05:00.576Z,53.1
2022-08-05T08:15:03.755Z,53.0
2022-08-05T08:20:23.567Z,53.0
2022-08-05T08:25:03.878Z,52.9
2022-08-05T08:35:00.122Z,52.9
2022-08-05T08:45:21.925Z,52.8
2022-08-05T08:50:23.548Z,52.8
2022-08-05T08:55:00.573Z,52.8
2022-08-05T09:00:00.155Z,52.8
2022-08-05T09:05:17.192Z,52.8
2022-08-05T09:15:06.501Z,52.8
2022-08-05T09:25:00.155Z,52.8
2022-08-05T09:35:02.617Z,52.9
2022-08-05T09:40:00.408Z,52.9
2022-08-05T09:45:18.008Z,53.0
2022-08-05T09:55:55.658Z,52.9
2022-08-05T10:05:00.134Z,52.8
2022-08-05T10:15:01.529Z,53.0
2022-08-05T10:20:09.875Z,53.0
2022-08-05T10:25:01.346Z,53.1
2022-08-05T10:35:01.443Z,53.2
2022-08-05T10:45:00.152Z,53.2
2022-08-05T10:55:00.199Z,53.3
2022-08-05T11:05:00.382Z,53.2
2022-08-05T11:10:10.325Z,53.3
2022-08-05T11:15:12.039Z,53.3
2022-08-05T11:25:16.672Z,53.3
2022-08-05T11:35:00.355Z,53.3
2022-08-05T11:40:03.923Z,53.3
2022-08-05T11:45:00.118Z,53.2
2022-08-05T11:55:10.567Z,53.2
2022-08-05T12:05:00.765Z,53.1
2022-08-05T12:15:00.135Z,53.0
2022-08-05T12:20:17.305Z,53.0
2022-08-05T12:25:00.168Z,53.0
2022-08-05T12:30:03.566Z,53.0
2022-08-05T12:35:04.274Z,53.0
2022-08-05T12:40:10.616Z,53.0
2022-08-05T12:45:00.166Z,53.1
2022-08-05T12:55:00.133Z,53.1
2022-08-05T13:05:00.134Z,53.1
2022-08-05T13:10:01.335Z,53.0
2022-08-05T13:15:10.089Z,52.9
2022-08-05T13:25:05.360Z,52.9
2022-08-05T13:35:00.606Z,52.8
2022-08-05T13:45:00.160Z,52.7
2022-08-05T13:55:01.365Z,52.6
2022-08-05T14:05:00.993Z,52.5
2022-08-05T14:15:00.137Z,52.5
2022-08-05T14:25:00.129Z,52.4
2022-08-05T14:35:00.143Z,52.3
2022-08-05T14:45:00.157Z,52.3
2022-08-05T14:55:01.255Z,52.2
2022-08-05T15:05:00.591Z,52.2
2022-08-05T15:15:01.742Z,52.2
2022-08-05T15:25:00.245Z,52.5
2022-08-05T15:35:10.642Z,52.9
2022-08-05T15:40:42.162Z,53.1
2022-08-05T15:45:01.549Z,53.1
2022-08-05T15:55:00.126Z,53.2
2022-08-05T16:05:01.943Z,53.3
2022-08-05T16:15:00.799Z,53.2
2022-08-05T16:25:10.071Z,53.2
2022-08-05T16:35:00.156Z,53.4
2022-08-05T16:45:00.111Z,53.4
2022-08-05T16:50:00.681Z,53.4
2022-08-05T16:55:00.154Z,53.5
2022-08-05T17:00:04.484Z,53.4
2022-08-05T17:05:00.173Z,53.5
2022-08-05T17:15:00.336Z,53.6
2022-08-05T17:25:01.046Z,53.4
2022-08-05T17:35:00.161Z,53.1
2022-08-05T17:45:18.321Z,52.6
2022-08-05T17:50:10.519Z,52.2
2022-08-05T17:55:00.160Z,51.9
2022-08-05T18:05:01.224Z,51.5
2022-08-05T18:15:00.169Z,51.4
2022-08-05T18:25:00.158Z,51.1
2022-08-05T18:35:01.308Z,50.9
2022-08-05T18:45:00.291Z,50.7
2022-08-05T18:55:00.153Z,50.5
2022-08-05T19:06:06.865Z,50.3
2022-08-05T19:15:03.015Z,49.8
2022-08-05T19:20:03.065Z,49.6
2022-08-05T19:25:00.145Z,49.4
2022-08-05T19:30:02.933Z,49.2
2022-08-05T19:35:06.629Z,48.9
2022-08-05T19:45:01.544Z,48.0
2022-08-05T19:50:00.182Z,47.7
2022-08-05T19:55:06.661Z,47.7
2022-08-05T20:00:04.388Z,47.4
2022-08-05T20:05:00.424Z,47.5
2022-08-05T20:10:00.227Z,47.4
2022-08-05T20:15:00.144Z,47.3
2022-08-05T20:20:00.179Z,47.5
2022-08-05T20:25:00.441Z,47.5
2022-08-05T20:35:00.162Z,47.5
2022-08-05T20:45:00.864Z,47.4
2022-08-05T20:55:54.558Z,47.3
2022-08-05T21:05:02.592Z,47.3
2022-08-05T21:15:00.138Z,47.4
2022-08-05T21:20:10.432Z,47.4
2022-08-05T21:25:00.162Z,47.4
2022-08-05T21:30:02.160Z,47.5
2022-08-05T21:35:17.996Z,47.5
2022-08-05T21:45:00.653Z,47.6
2022-08-05T21:50:01.702Z,47.6
2022-08-05T21:55:07.280Z,47.6
2022-08-05T22:05:00.195Z,47.7
2022-08-05T22:15:01.009Z,47.8
2022-08-05T22:25:01.029Z,48.1
2022-08-05T22:35:00.328Z,48.2
2022-08-05T22:45:00.864Z,48.1
2022-08-05T22:55:00.231Z,47.7
2022-08-05T23:00:02.935Z,47.5
2022-08-05T23:05:05.212Z,47.4
2022-08-05T23:10:02.804Z,46.8
2022-08-05T23:15:01.470Z,46.8
2022-08-05T23:25:00.143Z,46.1
2022-08-05T23:35:00.105Z,45.6
2022-08-05T23:45:01.233Z,45.5
2022-08-05T23:50:00.197Z,45.6
2022-08-05T23:55:00.175Z,45.5
